FredonyerEastRWIS Atmospheric Data: 10/23/2019 Summary  Detailed Graphs  Station List

  Temperature     Wind Precipitation Visibility
Timestamp Air Wet
Bulb
Dew-
point
24-hr
Max
24-hr
Min
Relative
Humidity
Atmospheric
Pressure
Avg
Speed
Avg
Dir
Spot
Speed
Spot
Dir
Max
Speed
Max
Dir
  Rate Situation Start End 1 hr 3 hr 6 hr 12 hr 24 hr   Situation
Date Time °F °F °F °F °F % in Hg mph ° mph ° mph ° Y/N in/hr text Date Time Date Time in in in in in mi text
10/23/2019 12:08 AM 39.92 38.48 36.86 70.88 31.46 88.0 Not Reported 0.00 N 0.00 N 0.67 N No 0.000 No Precipitation 10/22/2019 01:21 PM 10/22/2019 01:27 PM 0.000 0.000 0.000 0.043 0.043 Not Reported Not Reported
10/23/2019 12:23 AM 39.38 38.12 36.50 70.88 31.46 89.0 Not Reported 0.00 N 0.00 SW 0.00 N No 0.000 No Precipitation 10/22/2019 01:21 PM 10/22/2019 01:27 PM 0.000 0.000 0.000 0.043 0.043 Not Reported Not Reported
10/23/2019 12:39 AM 39.20 38.12 37.04 70.88 31.46 91.0 Not Reported 0.00 N 0.00 SW 0.00 N No 0.000 No Precipitation 10/22/2019 01:21 PM 10/22/2019 01:27 PM 0.000 0.000 0.000 0.043 0.043 Not Reported Not Reported
10/23/2019 12:53 AM 39.02 38.12 37.04 70.88 31.46 92.0 Not Reported 0.00 N 0.00 N 0.67 NW No 0.000 No Precipitation 10/22/2019 01:21 PM 10/22/2019 01:27 PM 0.000 0.000 0.000 0.043 0.043 Not Reported Not Reported
10/23/2019 01:08 AM 38.84 37.94 36.68 70.88 31.46 91.0 Not Reported 0.00 N 0.00 W 1.12 NW No 0.000 No Precipitation 10/22/2019 01:21 PM 10/22/2019 01:27 PM 0.000 0.000 0.000 0.043 0.043 Not Reported Not Reported
10/23/2019 01:23 AM 38.84 37.94 37.04 70.88 31.46 93.0 Not Reported 0.00 N 0.00 W 0.00 W No 0.000 No Precipitation 10/22/2019 01:21 PM 10/22/2019 01:27 PM 0.000 0.000 0.000 0.000 0.043 Not Reported Not Reported
10/23/2019 01:38 AM 38.48 37.94 37.04 70.88 31.46 94.0 Not Reported 0.22 NW 0.89 NW 0.89 NW No 0.000 No Precipitation 10/22/2019 01:21 PM 10/22/2019 01:27 PM 0.000 0.000 0.000 0.000 0.043 Not Reported Not Reported
10/23/2019 01:53 AM 38.30 37.58 36.68 70.88 31.46 94.0 Not Reported 0.00 N 0.00 NW 0.67 NW No 0.000 No Precipitation 10/22/2019 01:21 PM 10/22/2019 01:27 PM 0.000 0.000 0.000 0.000 0.043 Not Reported Not Reported
10/23/2019 02:08 AM 37.76 37.22 36.32 70.88 31.46 94.0 Not Reported 0.22 N 0.00 NE 1.79 N No 0.000 No Precipitation 10/22/2019 01:21 PM 10/22/2019 01:27 PM 0.000 0.000 0.000 0.000 0.043 Not Reported Not Reported
10/23/2019 02:23 AM 37.76 37.22 36.50 70.88 31.46 95.0 Not Reported 0.00 N 0.00 NW 0.89 NW No 0.000 No Precipitation 10/22/2019 01:21 PM 10/22/2019 01:27 PM 0.000 0.000 0.000 0.000 0.043 Not Reported Not Reported
10/23/2019 02:38 AM 37.58 37.04 36.50 70.88 31.46 95.0 Not Reported 0.00 N 0.00 NW 0.00 NW No 0.000 No Precipitation 10/22/2019 01:21 PM 10/22/2019 01:27 PM 0.000 0.000 0.000 0.000 0.043 Not Reported Not Reported
10/23/2019 02:53 AM 37.40 36.86 36.32 70.88 31.46 96.0 Not Reported 0.00 N 0.22 NW 0.22 NW No 0.000 No Precipitation 10/22/2019 01:21 PM 10/22/2019 01:27 PM 0.000 0.000 0.000 0.000 0.043 Not Reported Not Reported
10/23/2019 03:08 AM 37.40 37.04 36.50 70.88 31.46 96.0 Not Reported 0.00 N 0.22 N 0.89 N No 0.000 No Precipitation 10/22/2019 01:21 PM 10/22/2019 01:27 PM 0.000 0.000 0.000 0.000 0.043 Not Reported Not Reported
10/23/2019 03:23 AM 36.86 36.32 35.96 70.88 31.46 96.0 Not Reported 0.00 N 0.00 N 0.00 N No 0.000 No Precipitation 10/22/2019 01:21 PM 10/22/2019 01:27 PM 0.000 0.000 0.000 0.000 0.043 Not Reported Not Reported
10/23/2019 03:38 AM 36.68 36.32 35.96 70.88 31.46 97.0 Not Reported 0.00 N 0.00 N 0.45 N No 0.000 No Precipitation 10/22/2019 01:21 PM 10/22/2019 01:27 PM 0.000 0.000 0.000 0.000 0.043 Not Reported Not Reported
10/23/2019 03:53 AM 36.32 35.96 35.60 70.88 31.46 97.0 Not Reported 0.00 N 0.00 N 0.00 N No 0.000 No Precipitation 10/22/2019 01:21 PM 10/22/2019 01:27 PM 0.000 0.000 0.000 0.000 0.043 Not Reported Not Reported
10/23/2019 04:08 AM 36.32 36.14 35.78 70.88 31.46 97.0 Not Reported 0.00 N 0.00 W 0.67 N No 0.000 No Precipitation 10/22/2019 01:21 PM 10/22/2019 01:27 PM 0.000 0.000 0.000 0.000 0.043 Not Reported Not Reported
10/23/2019 04:24 AM 35.96 35.60 35.24 70.88 31.46 97.0 Not Reported 0.00 N 0.00 NW 0.45 NW No 0.000 No Precipitation 10/22/2019 01:21 PM 10/22/2019 01:27 PM 0.000 0.000 0.000 0.000 0.043 Not Reported Not Reported
10/23/2019 04:38 AM 35.60 35.42 35.06 70.88 31.46 97.0 Not Reported 0.00 N 0.00 N 0.67 NW No 0.000 No Precipitation 10/22/2019 01:21 PM 10/22/2019 01:27 PM 0.000 0.000 0.000 0.000 0.043 Not Reported Not Reported
10/23/2019 04:53 AM 35.60 35.42 35.06 70.88 31.46 97.0 Not Reported 0.00 N 0.45 NW 0.67 N No 0.000 No Precipitation 10/22/2019 01:21 PM 10/22/2019 01:27 PM 0.000 0.000 0.000 0.000 0.043 Not Reported Not Reported
10/23/2019 05:08 AM 35.24 35.06 34.70 70.88 31.46 97.0 Not Reported 0.00 N 0.00 NW 0.89 NW No 0.000 No Precipitation 10/22/2019 01:21 PM 10/22/2019 01:27 PM 0.000 0.000 0.000 0.000 0.043 Not Reported Not Reported
10/23/2019 05:23 AM 35.06 34.88 34.70 70.88 31.46 98.0 Not Reported 0.22 NW 0.00 NW 0.67 NW No 0.000 No Precipitation 10/22/2019 01:21 PM 10/22/2019 01:27 PM 0.000 0.000 0.000 0.000 0.043 Not Reported Not Reported
10/23/2019 05:38 AM 34.70 34.52 34.34 70.88 31.46 98.0 Not Reported 0.00 NW 0.00 NW 0.00 NW No 0.000 No Precipitation 10/22/2019 01:21 PM 10/22/2019 01:27 PM 0.000 0.000 0.000 0.000 0.043 Not Reported Not Reported
10/23/2019 05:53 AM 34.88 34.52 34.34 70.88 31.46 98.0 Not Reported 0.00 N 0.00 N 0.89 NW No 0.000 No Precipitation 10/22/2019 01:21 PM 10/22/2019 01:27 PM 0.000 0.000 0.000 0.000 0.043 Not Reported Not Reported
10/23/2019 06:08 AM 34.52 34.34 34.16 70.88 31.46 98.0 Not Reported 0.00 N 0.00 N 0.89 N No 0.000 No Precipitation 10/22/2019 01:21 PM 10/22/2019 01:27 PM 0.000 0.000 0.000 0.000 0.043 Not Reported Not Reported
10/23/2019 06:23 AM 34.16 33.98 33.80 70.88 31.46 98.0 Not Reported 0.22 NW 0.22 NW 0.67 NW No 0.000 No Precipitation 10/22/2019 01:21 PM 10/22/2019 01:27 PM 0.000 0.000 0.000 0.000 0.043 Not Reported Not Reported
10/23/2019 06:38 AM 33.26 33.26 32.90 70.88 31.46 98.0 Not Reported 0.00 N 0.00 N 0.00 N No 0.000 No Precipitation 10/22/2019 01:21 PM 10/22/2019 01:27 PM 0.000 0.000 0.000 0.000 0.043 Not Reported Not Reported
10/23/2019 06:53 AM 33.08 32.90 32.72 70.88 31.46 98.0 Not Reported 0.00 N 0.00 N 0.67 N No 0.000 No Precipitation 10/22/2019 01:21 PM 10/22/2019 01:27 PM 0.000 0.000 0.000 0.000 0.043 Not Reported Not Reported
10/23/2019 07:08 AM 32.90 32.72 32.54 70.88 31.46 98.0 Not Reported 0.45 N 0.89 N 0.89 N No 0.000 No Precipitation 10/22/2019 01:21 PM 10/22/2019 01:27 PM 0.000 0.000 0.000 0.000 0.043 Not Reported Not Reported
10/23/2019 07:23 AM 32.72 32.72 32.36 70.88 31.82 98.0 Not Reported 0.00 N 0.00 W 0.22 W No 0.000 No Precipitation 10/22/2019 01:21 PM 10/22/2019 01:27 PM 0.000 0.000 0.000 0.000 0.043 Not Reported Not Reported
10/23/2019 07:38 AM 32.54 32.36 32.18 70.88 32.00 98.0 Not Reported 0.22 E 0.00 E 1.34 NW No 0.000 No Precipitation 10/22/2019 01:21 PM 10/22/2019 01:27 PM 0.000 0.000 0.000 0.000 0.043 Not Reported Not Reported
10/23/2019 07:53 AM 33.08 32.90 32.72 70.88 32.54 98.0 Not Reported 1.12 N 0.89 N 1.34 N No 0.000 No Precipitation 10/22/2019 01:21 PM 10/22/2019 01:27 PM 0.000 0.000 0.000 0.000 0.043 Not Reported Not Reported
10/23/2019 08:08 AM 33.44 33.26 33.08 70.88 32.54 98.0 Not Reported 0.67 N 1.12 N 2.46 SE No 0.000 No Precipitation 10/22/2019 01:21 PM 10/22/2019 01:27 PM 0.000 0.000 0.000 0.000 0.043 Not Reported Not Reported
10/23/2019 08:23 AM 34.34 34.34 34.16 70.88 32.54 99.0 Not Reported 0.22 N 0.00 N 0.67 N No 0.000 No Precipitation 10/22/2019 01:21 PM 10/22/2019 01:27 PM 0.000 0.000 0.000 0.000 0.043 Not Reported Not Reported
10/23/2019 08:38 AM 36.14 35.96 35.78 70.88 32.54 99.0 Not Reported 0.00 SE 0.67 SE 1.57 SE No 0.000 No Precipitation 10/22/2019 01:21 PM 10/22/2019 01:27 PM 0.000 0.000 0.000 0.000 0.043 Not Reported Not Reported
10/23/2019 08:53 AM 37.94 37.76 37.58 70.88 32.54 98.0 Not Reported 0.00 N 0.00 NE 1.34 SE No 0.000 No Precipitation 10/22/2019 01:21 PM 10/22/2019 01:27 PM 0.000 0.000 0.000 0.000 0.043 Not Reported Not Reported
10/23/2019 09:09 AM 41.72 39.74 37.58 70.88 32.54 84.0 Not Reported 0.89 SE 0.67 S 2.01 S No 0.000 No Precipitation 10/22/2019 01:21 PM 10/22/2019 01:27 PM 0.000 0.000 0.000 0.000 0.043 Not Reported Not Reported
10/23/2019 09:23 AM 45.50 40.64 34.34 70.88 32.54 64.0 Not Reported 1.79 NE 0.67 E 2.01 S No 0.000 No Precipitation 10/22/2019 01:21 PM 10/22/2019 01:27 PM 0.000 0.000 0.000 0.000 0.043 Not Reported Not Reported
10/23/2019 09:38 AM 47.66 41.36 33.44 70.88 32.54 57.0 Not Reported 1.79 E 3.36 SE 3.58 SE No 0.000 No Precipitation 10/22/2019 01:21 PM 10/22/2019 01:27 PM 0.000 0.000 0.000 0.000 0.043 Not Reported Not Reported
10/23/2019 09:54 AM 49.46 41.36 30.56 70.88 32.54 47.0 Not Reported 2.24 S 1.12 NW 4.70 SE No 0.000 No Precipitation 10/22/2019 01:21 PM 10/22/2019 01:27 PM 0.000 0.000 0.000 0.000 0.043 Not Reported Not Reported
10/23/2019 10:09 AM 50.90 41.18 27.50 70.88 32.54 40.0 Not Reported 2.24 NE 2.01 NE 4.47 E No 0.000 No Precipitation 10/22/2019 01:21 PM 10/22/2019 01:27 PM 0.000 0.000 0.000 0.000 0.043 Not Reported Not Reported
10/23/2019 10:23 AM 53.24 41.36 23.90 70.88 32.54 31.0 Not Reported 1.12 NW 3.58 N 4.70 N No 0.000 No Precipitation 10/22/2019 01:21 PM 10/22/2019 01:27 PM 0.000 0.000 0.000 0.000 0.043 Not Reported Not Reported
10/23/2019 10:39 AM 55.04 41.18 19.58 70.88 32.54 24.0 Not Reported 2.46 SE 4.92 E 5.37 SE No 0.000 No Precipitation 10/22/2019 01:21 PM 10/22/2019 01:27 PM 0.000 0.000 0.000 0.000 0.043 Not Reported Not Reported
10/23/2019 10:53 AM 55.22 40.82 17.06 70.88 32.54 21.0 Not Reported 3.36 S 2.01 SE 6.04 SE No 0.000 No Precipitation 10/22/2019 01:21 PM 10/22/2019 01:27 PM 0.000 0.000 0.000 0.000 0.043 Not Reported Not Reported
10/23/2019 11:08 AM 55.94 41.18 17.06 70.88 32.54 21.0 Not Reported 3.58 S 2.68 SE 6.04 E No 0.000 No Precipitation 10/22/2019 01:21 PM 10/22/2019 01:27 PM 0.000 0.000 0.000 0.000 0.043 Not Reported Not Reported
10/23/2019 11:23 AM 55.58 40.64 15.62 70.88 32.54 20.0 Not Reported 4.92 S 4.03 SE 7.61 SE No 0.000 No Precipitation 10/22/2019 01:21 PM 10/22/2019 01:27 PM 0.000 0.000 0.000 0.000 0.043 Not Reported Not Reported
10/23/2019 11:39 AM 56.12 40.82 14.36 70.88 32.54 18.0 Not Reported 3.58 SW 3.80 S 8.95 SE No 0.000 No Precipitation 10/22/2019 01:21 PM 10/22/2019 01:27 PM 0.000 0.000 0.000 0.000 0.043 Not Reported Not Reported
10/23/2019 11:53 AM 57.56 41.18 12.92 70.88 32.54 16.0 Not Reported 2.01 S 4.92 S 6.71 NE No 0.000 No Precipitation 10/22/2019 01:21 PM 10/22/2019 01:27 PM 0.000 0.000 0.000 0.000 0.043 Not Reported Not Reported
10/23/2019 12:09 PM 58.82 41.90 11.30 70.88 32.54 14.0 Not Reported 2.24 E 4.03 NE 6.04 SE No 0.000 No Precipitation 10/22/2019 01:21 PM 10/22/2019 01:27 PM 0.000 0.000 0.000 0.000 0.043 Not Reported Not Reported
10/23/2019 12:23 PM 58.82 41.36 9.68 70.88 32.54 13.0 Not Reported 5.59 E 3.80 NE 8.50 SE No 0.000 No Precipitation 10/22/2019 01:21 PM 10/22/2019 01:27 PM 0.000 0.000 0.000 0.000 0.043 Not Reported Not Reported
10/23/2019 12:38 PM 59.54 41.72 9.50 70.88 32.54 13.0 Not Reported 2.46 E 4.70 SE 7.61 SE No 0.000 No Precipitation 10/22/2019 01:21 PM 10/22/2019 01:27 PM 0.000 0.000 0.000 0.000 0.043 Not Reported Not Reported
10/23/2019 12:54 PM 59.18 41.90 10.58 70.88 32.54 14.0 Not Reported 4.70 NE 2.68 SE 6.49 NE No 0.000 No Precipitation 10/22/2019 01:21 PM 10/22/2019 01:27 PM 0.000 0.000 0.000 0.000 0.043 Not Reported Not Reported
10/23/2019 01:09 PM 60.62 42.80 11.66 70.88 32.54 14.0 Not Reported 2.91 S 2.24 SE 4.70 S No 0.000 No Precipitation 10/22/2019 01:21 PM 10/22/2019 01:27 PM 0.000 0.000 0.000 0.000 0.043 Not Reported Not Reported
10/23/2019 01:23 PM 60.44 42.62 12.20 70.88 32.54 14.0 Not Reported 1.34 N 3.13 NE 8.05 E No 0.000 No Precipitation 10/22/2019 01:21 PM 10/22/2019 01:27 PM 0.000 0.000 0.000 0.000 0.000 Not Reported Not Reported
10/23/2019 01:39 PM 60.44 42.62 12.02 70.88 32.54 14.0 Not Reported 5.37 E 7.16 SE 7.38 SE No 0.000 No Precipitation 10/22/2019 01:21 PM 10/22/2019 01:27 PM 0.000 0.000 0.000 0.000 0.000 Not Reported Not Reported
10/23/2019 01:54 PM 61.88 43.16 10.94 70.88 32.54 13.0 Not Reported 2.24 E 6.04 NE 6.04 NE No 0.000 No Precipitation 10/22/2019 01:21 PM 10/22/2019 01:27 PM 0.000 0.000 0.000 0.000 0.000 Not Reported Not Reported
10/23/2019 02:08 PM 61.52 43.34 13.10 70.88 32.54 14.0 Not Reported 1.57 E 4.03 S 8.05 E No 0.000 No Precipitation 10/22/2019 01:21 PM 10/22/2019 01:27 PM 0.000 0.000 0.000 0.000 0.000 Not Reported Not Reported
10/23/2019 02:23 PM 61.52 43.16 12.20 70.88 32.54 14.0 Not Reported 3.36 SE 4.70 SE 6.04 S No 0.000 No Precipitation 10/22/2019 01:21 PM 10/22/2019 01:27 PM 0.000 0.000 0.000 0.000 0.000 Not Reported Not Reported
10/23/2019 02:38 PM 62.24 43.34 11.12 70.88 32.54 13.0 Not Reported 2.68 SE 4.03 S 5.14 NE No 0.000 No Precipitation 10/22/2019 01:21 PM 10/22/2019 01:27 PM 0.000 0.000 0.000 0.000 0.000 Not Reported Not Reported
10/23/2019 02:54 PM 62.24 43.52 11.66 70.88 32.54 13.0 Not Reported 4.70 SE 4.70 SW 5.59 N No 0.000 No Precipitation 10/22/2019 01:21 PM 10/22/2019 01:27 PM 0.000 0.000 0.000 0.000 0.000 Not Reported Not Reported
10/23/2019 03:08 PM 62.06 43.52 12.56 70.88 32.54 14.0 Not Reported 3.80 NE 4.70 S 7.61 E No 0.000 No Precipitation 10/22/2019 01:21 PM 10/22/2019 01:27 PM 0.000 0.000 0.000 0.000 0.000 Not Reported Not Reported
10/23/2019 03:23 PM 62.24 43.52 12.20 70.88 32.54 13.0 Not Reported 4.03 E 1.12 NE 7.61 S No 0.000 No Precipitation 10/22/2019 01:21 PM 10/22/2019 01:27 PM 0.000 0.000 0.000 0.000 0.000 Not Reported Not Reported
10/23/2019 03:38 PM 62.78 43.88 12.56 70.88 32.54 13.0 Not Reported 0.89 N 3.36 NE 7.38 SE No 0.000 No Precipitation 10/22/2019 01:21 PM 10/22/2019 01:27 PM 0.000 0.000 0.000 0.000 0.000 Not Reported Not Reported
10/23/2019 03:53 PM 62.24 43.52 12.38 70.88 32.54 13.0 Not Reported 3.36 SE 4.47 N 8.05 E No 0.000 No Precipitation 10/22/2019 01:21 PM 10/22/2019 01:27 PM 0.000 0.000 0.000 0.000 0.000 Not Reported Not Reported
10/23/2019 04:08 PM 62.24 43.52 11.84 70.88 32.54 13.0 Not Reported 2.01 SE 4.03 NE 5.82 E No 0.000 No Precipitation 10/22/2019 01:21 PM 10/22/2019 01:27 PM 0.000 0.000 0.000 0.000 0.000 Not Reported Not Reported
10/23/2019 04:23 PM 61.88 42.98 10.58 70.34 32.54 12.0 Not Reported 3.13 SE 2.24 NE 6.26 N No 0.000 No Precipitation 10/22/2019 01:21 PM 10/22/2019 01:27 PM 0.000 0.000 0.000 0.000 0.000 Not Reported Not Reported
10/23/2019 04:38 PM 61.34 42.62 9.32 69.26 32.54 12.0 Not Reported 4.03 SE 3.58 SW 6.93 E No 0.000 No Precipitation 10/22/2019 01:21 PM 10/22/2019 01:27 PM 0.000 0.000 0.000 0.000 0.000 Not Reported Not Reported
10/23/2019 04:53 PM 60.26 42.26 10.58 68.00 32.54 13.0 Not Reported 4.70 SE 0.89 SE 5.82 SE No 0.000 No Precipitation 10/22/2019 01:21 PM 10/22/2019 01:27 PM 0.000 0.000 0.000 0.000 0.000 Not Reported Not Reported
10/23/2019 05:08 PM 57.38 41.90 16.88 63.14 32.54 20.0 Not Reported 0.89 SW 2.91 NW 4.47 SE No 0.000 No Precipitation 10/22/2019 01:21 PM 10/22/2019 01:27 PM 0.000 0.000 0.000 0.000 0.000 Not Reported Not Reported
10/23/2019 05:23 PM 56.30 40.82 13.82 63.14 32.54 18.0 Not Reported 0.45 SW 0.45 SW 3.36 E No 0.000 No Precipitation 10/22/2019 01:21 PM 10/22/2019 01:27 PM 0.000 0.000 0.000 0.000 0.000 Not Reported Not Reported
10/23/2019 05:38 PM 54.86 39.74 12.02 63.14 32.54 17.0 Not Reported 0.89 NW 1.12 E 4.47 E No 0.000 No Precipitation 10/22/2019 01:21 PM 10/22/2019 01:27 PM 0.000 0.000 0.000 0.000 0.000 Not Reported Not Reported
10/23/2019 05:53 PM 50.36 38.30 18.14 63.14 32.54 27.0 Not Reported 0.89 N 0.00 NW 1.79 NW No 0.000 No Precipitation 10/22/2019 01:21 PM 10/22/2019 01:27 PM 0.000 0.000 0.000 0.000 0.000 Not Reported Not Reported
10/23/2019 06:08 PM 47.66 36.86 18.32 63.14 32.54 30.0 Not Reported 1.34 N 0.89 N 1.79 N No 0.000 No Precipitation 10/22/2019 01:21 PM 10/22/2019 01:27 PM 0.000 0.000 0.000 0.000 0.000 Not Reported Not Reported
10/23/2019 06:24 PM 46.22 35.78 18.14 63.14 32.54 31.0 Not Reported 1.12 N 0.00 NW 1.79 N No 0.000 No Precipitation 10/22/2019 01:21 PM 10/22/2019 01:27 PM 0.000 0.000 0.000 0.000 0.000 Not Reported Not Reported
10/23/2019 06:38 PM 44.60 34.88 16.88 63.14 32.54 32.0 Not Reported 0.89 NW 1.57 N 1.57 N No 0.000 No Precipitation 10/22/2019 01:21 PM 10/22/2019 01:27 PM 0.000 0.000 0.000 0.000 0.000 Not Reported Not Reported
10/23/2019 06:53 PM 43.70 34.34 16.70 63.14 32.54 33.0 Not Reported 0.45 N 1.12 NW 1.79 N No 0.000 No Precipitation 10/22/2019 01:21 PM 10/22/2019 01:27 PM 0.000 0.000 0.000 0.000 0.000 Not Reported Not Reported
10/23/2019 07:08 PM 42.08 33.08 15.44 63.14 32.54 33.0 Not Reported 0.45 W 0.22 W 0.89 NW No 0.000 No Precipitation 10/22/2019 01:21 PM 10/22/2019 01:27 PM 0.000 0.000 0.000 0.000 0.000 Not Reported Not Reported
10/23/2019 07:23 PM 40.64 32.18 14.90 63.14 32.54 34.0 Not Reported 0.89 N 0.45 NW 1.12 NW No 0.000 No Precipitation 10/22/2019 01:21 PM 10/22/2019 01:27 PM 0.000 0.000 0.000 0.000 0.000 Not Reported Not Reported
10/23/2019 07:38 PM 39.74 31.64 14.54 63.14 32.54 35.0 Not Reported 0.00 N 0.00 W 0.00 W No 0.000 No Precipitation 10/22/2019 01:21 PM 10/22/2019 01:27 PM 0.000 0.000 0.000 0.000 0.000 Not Reported Not Reported
10/23/2019 07:53 PM 38.48 31.10 15.44 63.14 32.54 38.0 Not Reported 0.00 N 0.00 SW 0.00 SW No 0.000 No Precipitation 10/22/2019 01:21 PM 10/22/2019 01:27 PM 0.000 0.000 0.000 0.000 0.000 Not Reported Not Reported
10/23/2019 08:08 PM 37.76 30.74 15.80 63.14 32.54 39.0 Not Reported 0.00 N 0.00 NW 0.45 NW No 0.000 No Precipitation 10/22/2019 01:21 PM 10/22/2019 01:27 PM 0.000 0.000 0.000 0.000 0.000 Not Reported Not Reported
10/23/2019 08:23 PM 37.22 30.20 14.90 63.14 32.54 39.0 Not Reported 0.45 NW 0.00 NW 1.12 NW No 0.000 No Precipitation 10/22/2019 01:21 PM 10/22/2019 01:27 PM 0.000 0.000 0.000 0.000 0.000 Not Reported Not Reported
10/23/2019 08:39 PM 36.50 29.66 14.90 63.14 32.54 40.0 Not Reported 0.00 N 0.00 SW 0.45 S No 0.000 No Precipitation 10/22/2019 01:21 PM 10/22/2019 01:27 PM 0.000 0.000 0.000 0.000 0.000 Not Reported Not Reported
10/23/2019 08:53 PM 36.14 29.84 16.34 63.14 32.54 43.0 Not Reported 0.45 NE 0.00 S 1.12 NW No 0.000 No Precipitation 10/22/2019 01:21 PM 10/22/2019 01:27 PM 0.000 0.000 0.000 0.000 0.000 Not Reported Not Reported
10/23/2019 09:09 PM 36.32 29.66 15.08 63.14 32.54 41.0 Not Reported 0.89 NW 0.22 NW 1.57 N No 0.000 No Precipitation 10/22/2019 01:21 PM 10/22/2019 01:27 PM 0.000 0.000 0.000 0.000 0.000 Not Reported Not Reported
10/23/2019 09:23 PM 38.12 30.56 14.18 63.14 32.54 36.0 Not Reported 0.89 NW 1.79 N 2.24 N No 0.000 No Precipitation 10/22/2019 01:21 PM 10/22/2019 01:27 PM 0.000 0.000 0.000 0.000 0.000 Not Reported Not Reported
10/23/2019 09:39 PM 38.48 30.92 15.08 63.14 32.54 37.0 Not Reported 1.34 NW 0.67 NW 3.13 N No 0.000 No Precipitation 10/22/2019 01:21 PM 10/22/2019 01:27 PM 0.000 0.000 0.000 0.000 0.000 Not Reported Not Reported
10/23/2019 09:53 PM 37.76 30.56 15.08 63.14 32.54 38.0 Not Reported 2.24 NW 1.34 N 2.24 NW No 0.000 No Precipitation 10/22/2019 01:21 PM 10/22/2019 01:27 PM 0.000 0.000 0.000 0.000 0.000 Not Reported Not Reported
10/23/2019 10:08 PM 37.94 30.74 15.26 63.14 32.54 38.0 Not Reported 1.12 N 0.89 N 2.46 N No 0.000 No Precipitation 10/22/2019 01:21 PM 10/22/2019 01:27 PM 0.000 0.000 0.000 0.000 0.000 Not Reported Not Reported
10/23/2019 10:23 PM 37.76 30.56 15.26 63.14 32.54 39.0 Not Reported 0.89 NW 1.34 NW 2.01 NW No 0.000 No Precipitation 10/22/2019 01:21 PM 10/22/2019 01:27 PM 0.000 0.000 0.000 0.000 0.000 Not Reported Not Reported
10/23/2019 10:38 PM 37.94 30.92 16.34 63.14 32.54 40.0 Not Reported 0.89 N 1.12 N 2.01 N No 0.000 No Precipitation 10/22/2019 01:21 PM 10/22/2019 01:27 PM 0.000 0.000 0.000 0.000 0.000 Not Reported Not Reported
10/23/2019 10:53 PM 38.12 31.10 16.88 63.14 32.54 41.0 Not Reported 0.45 NW 3.13 NW 3.13 NW No 0.000 No Precipitation 10/22/2019 01:21 PM 10/22/2019 01:27 PM 0.000 0.000 0.000 0.000 0.000 Not Reported Not Reported
10/23/2019 11:08 PM 37.94 30.92 16.52 63.14 32.54 41.0 Not Reported 0.67 N 2.01 N 2.91 NW No 0.000 No Precipitation 10/22/2019 01:21 PM 10/22/2019 01:27 PM 0.000 0.000 0.000 0.000 0.000 Not Reported Not Reported
10/23/2019 11:23 PM 37.58 30.56 16.16 63.14 32.54 41.0 Not Reported 0.00 NW 2.24 N 2.24 N No 0.000 No Precipitation 10/22/2019 01:21 PM 10/22/2019 01:27 PM 0.000 0.000 0.000 0.000 0.000 Not Reported Not Reported
10/23/2019 11:38 PM 37.58 30.74 16.34 63.14 32.54 41.0 Not Reported 0.00 N 0.00 N 1.57 N No 0.000 No Precipitation 10/22/2019 01:21 PM 10/22/2019 01:27 PM 0.000 0.000 0.000 0.000 0.000 Not Reported Not Reported
10/23/2019 11:53 PM 37.04 30.20 15.26 63.14 32.54 40.0 Not Reported 1.12 N 1.34 N 1.57 N No 0.000 No Precipitation 10/22/2019 01:21 PM 10/22/2019 01:27 PM 0.000 0.000 0.000 0.000 0.000 Not Reported Not Reported